Time;durP1;ratioP1;P1;durP2;ratioP2;P2;SDS_P1;SDS_P2;PMS_P1;PMS_P2;Temp;Humidity;BMP_temperature;BMP_pressure;BME280_temperature;BME280_humidity;BME280_pressure;Samples;Min_cycle;Max_cycle;Signal;HPM_P1;HPM_P2
2022/07/08 00:00:36;;;;;;;2.25;0.70;;;;;;;;;;4507781;28;20046;-69
2022/07/08 00:02:47;;;;;;;1.48;0.73;;;;;;;;;;4509102;28;20055;-70
2022/07/08 00:04:58;;;;;;;2.28;0.80;;;;;;;;;;4507328;28;20033;-70
2022/07/08 00:07:08;;;;;;;1.80;0.75;;;;;;;;;;4494632;28;20779;-70
2022/07/08 00:09:19;;;;;;;1.52;0.77;;;;;;;;;;4507732;28;20037;-70
2022/07/08 00:11:29;;;;;;;2.28;1.10;;;;;;;;;;4507779;28;20030;-70
2022/07/08 00:13:39;;;;;;;1.40;0.70;;;;;;;;;;4493418;28;20181;-70
2022/07/08 00:15:50;;;;;;;1.83;0.70;;;;;;;;;;4506970;28;20053;-70
2022/07/08 00:18:00;;;;;;;2.05;0.80;;;;;;;;;;4506113;28;28103;-70
2022/07/08 00:20:11;;;;;;;1.73;0.60;;;;;;;;;;4507952;28;20302;-70
2022/07/08 00:22:21;;;;;;;1.60;0.70;;;;;;;;;;4506908;28;20576;-70
2022/07/08 00:24:32;;;;;;;2.15;0.90;;;;;;;;;;4508356;28;20049;-70
2022/07/08 00:26:46;;;;;;;2.00;0.70;;;;;;;;;;4506226;28;20041;-70
2022/07/08 00:28:56;;;;;;;1.88;0.57;;;;;;;;;;4508157;28;20033;-70
2022/07/08 00:31:07;;;;;;;2.35;0.90;;;;;;;;;;4504578;28;20688;-71
2022/07/08 00:33:17;;;;;;;1.77;0.70;;;;;;;;;;4506998;28;20042;-71
2022/07/08 00:35:27;;;;;;;2.10;0.63;;;;;;;;;;4507662;28;20742;-70
2022/07/08 00:37:38;;;;;;;1.48;0.70;;;;;;;;;;4505911;28;20852;-70
2022/07/08 00:39:48;;;;;;;1.60;0.60;;;;;;;;;;4507359;28;20287;-70
2022/07/08 00:41:59;;;;;;;1.92;0.60;;;;;;;;;;4509031;28;20037;-70
2022/07/08 00:44:10;;;;;;;1.33;0.60;;;;;;;;;;4505770;28;32609;-70
2022/07/08 00:46:21;;;;;;;2.10;0.77;;;;;;;;;;4507426;28;20037;-71
2022/07/08 00:48:32;;;;;;;1.80;0.90;;;;;;;;;;4506726;28;20045;-71
2022/07/08 00:50:43;;;;;;;2.10;0.80;;;;;;;;;;4490654;28;20072;-70
2022/07/08 00:52:53;;;;;;;2.08;0.52;;;;;;;;;;4507271;28;20064;-70
2022/07/08 00:55:05;;;;;;;2.15;0.70;;;;;;;;;;4507110;28;20022;-70
2022/07/08 00:57:16;;;;;;;1.58;0.60;;;;;;;;;;4508619;28;20034;-70
2022/07/08 00:59:27;;;;;;;2.00;0.80;;;;;;;;;;4489069;28;20494;-71
2022/07/08 01:01:38;;;;;;;3.63;0.75;;;;;;;;;;4506025;28;20100;-70
2022/07/08 01:03:48;;;;;;;1.60;0.68;;;;;;;;;;4490851;28;20848;-70
2022/07/08 01:05:59;;;;;;;1.77;0.60;;;;;;;;;;4488549;28;20049;-70
2022/07/08 01:08:12;;;;;;;2.33;0.73;;;;;;;;;;4492189;28;20031;-70
2022/07/08 01:10:23;;;;;;;1.38;0.60;;;;;;;;;;4488436;28;20112;-72
2022/07/08 01:12:33;;;;;;;1.70;0.68;;;;;;;;;;4507211;28;20044;-70
2022/07/08 01:14:44;;;;;;;1.73;0.57;;;;;;;;;;4506213;28;20045;-71
2022/07/08 01:16:54;;;;;;;1.60;0.70;;;;;;;;;;4493552;28;20034;-70
2022/07/08 01:19:05;;;;;;;2.00;0.88;;;;;;;;;;4497832;28;20022;-70
2022/07/08 01:21:15;;;;;;;1.77;0.68;;;;;;;;;;4505258;28;20045;-71
2022/07/08 01:23:27;;;;;;;2.40;0.90;;;;;;;;;;4490220;28;20100;-70
2022/07/08 01:25:37;;;;;;;3.25;0.70;;;;;;;;;;4506524;28;20037;-70
2022/07/08 01:27:47;;;;;;;1.80;0.80;;;;;;;;;;4488708;28;20039;-71
2022/07/08 01:29:58;;;;;;;2.08;0.77;;;;;;;;;;4506611;28;20060;-70
2022/07/08 01:32:09;;;;;;;1.63;0.82;;;;;;;;;;4488979;28;20407;-71
2022/07/08 01:34:19;;;;;;;1.63;0.63;;;;;;;;;;4506589;28;20046;-70
2022/07/08 01:36:29;;;;;;;1.13;0.70;;;;;;;;;;4505621;28;20609;-70
2022/07/08 01:38:40;;;;;;;2.78;0.70;;;;;;;;;;4490609;28;20975;-70
2022/07/08 01:40:50;;;;;;;2.40;0.80;;;;;;;;;;4505544;28;20526;-69
2022/07/08 01:43:01;;;;;;;1.08;0.60;;;;;;;;;;4489123;28;20160;-70
2022/07/08 01:45:11;;;;;;;1.30;0.68;;;;;;;;;;4480793;28;20700;-70
2022/07/08 01:47:22;;;;;;;1.33;0.60;;;;;;;;;;4490548;28;20042;-71
2022/07/08 01:49:32;;;;;;;0.98;0.60;;;;;;;;;;4476093;28;20418;-71
2022/07/08 01:51:43;;;;;;;2.33;0.80;;;;;;;;;;4508047;28;20052;-70
2022/07/08 01:53:54;;;;;;;2.45;0.63;;;;;;;;;;4507679;28;20033;-70
2022/07/08 01:56:04;;;;;;;1.45;0.50;;;;;;;;;;4507063;28;20520;-70
2022/07/08 01:58:15;;;;;;;2.47;0.73;;;;;;;;;;4505705;28;20066;-71
2022/07/08 02:00:25;;;;;;;1.27;0.70;;;;;;;;;;4507393;28;20058;-71
2022/07/08 02:02:36;;;;;;;1.88;0.68;;;;;;;;;;4507575;28;20119;-70
2022/07/08 02:04:46;;;;;;;1.52;0.70;;;;;;;;;;4490577;28;20045;-70
2022/07/08 02:06:57;;;;;;;1.85;0.70;;;;;;;;;;4506497;28;20054;-70
2022/07/08 02:09:07;;;;;;;2.95;0.98;;;;;;;;;;4507496;28;24059;-70
2022/07/08 02:13:47;;;;;;;2.22;0.70;;;;;;;;;;4506470;28;20042;-70
2022/07/08 02:15:57;;;;;;;1.67;0.80;;;;;;;;;;4488177;28;20030;-71
2022/07/08 02:18:07;;;;;;;2.28;0.80;;;;;;;;;;4505850;28;20696;-69
2022/07/08 02:20:18;;;;;;;2.42;0.57;;;;;;;;;;4505229;28;20041;-71
2022/07/08 02:22:28;;;;;;;3.70;0.88;;;;;;;;;;4505922;28;20037;-70
2022/07/08 02:24:39;;;;;;;1.67;0.85;;;;;;;;;;4488480;28;20093;-71
2022/07/08 02:26:49;;;;;;;2.08;0.75;;;;;;;;;;4505372;28;20018;-70
2022/07/08 02:29:00;;;;;;;2.35;0.90;;;;;;;;;;4505306;28;20032;-70
2022/07/08 02:31:10;;;;;;;2.33;0.82;;;;;;;;;;4506963;28;20037;-70
2022/07/08 02:33:21;;;;;;;1.45;0.80;;;;;;;;;;4506495;28;20072;-70
2022/07/08 02:35:31;;;;;;;1.70;0.63;;;;;;;;;;4506698;28;20042;-70
2022/07/08 02:37:41;;;;;;;1.23;0.70;;;;;;;;;;4505464;28;20109;-71
2022/07/08 02:39:52;;;;;;;2.00;0.80;;;;;;;;;;4506944;28;20578;-70
2022/07/08 02:42:04;;;;;;;2.38;0.80;;;;;;;;;;4505713;28;20409;-70
2022/07/08 02:44:14;;;;;;;2.00;0.63;;;;;;;;;;4508338;28;20601;-70
2022/07/08 02:46:25;;;;;;;1.73;0.80;;;;;;;;;;4509473;28;20324;-70
2022/07/08 02:48:35;;;;;;;1.95;0.73;;;;;;;;;;4508178;28;20456;-70
2022/07/08 02:50:46;;;;;;;1.65;0.70;;;;;;;;;;4509008;28;20085;-71
2022/07/08 02:52:56;;;;;;;2.45;0.90;;;;;;;;;;4508489;28;20481;-70
2022/07/08 02:55:07;;;;;;;1.20;0.60;;;;;;;;;;4508846;28;20268;-70
2022/07/08 02:57:17;;;;;;;1.80;0.73;;;;;;;;;;4507302;28;20038;-71
2022/07/08 02:59:28;;;;;;;1.25;0.65;;;;;;;;;;4510698;28;20483;-70
2022/07/08 03:01:38;;;;;;;1.70;0.70;;;;;;;;;;4509958;28;20030;-71
2022/07/08 03:03:49;;;;;;;1.33;0.68;;;;;;;;;;4509498;28;20058;-71
2022/07/08 03:05:59;;;;;;;1.55;0.63;;;;;;;;;;4496710;28;20092;-70
2022/07/08 03:08:09;;;;;;;2.30;0.73;;;;;;;;;;4510201;28;20068;-71
2022/07/08 03:10:20;;;;;;;1.65;0.73;;;;;;;;;;4509364;28;20095;-70
2022/07/08 03:12:30;;;;;;;1.27;0.70;;;;;;;;;;4509107;28;20030;-71
2022/07/08 03:14:41;;;;;;;1.42;0.68;;;;;;;;;;4508624;28;25454;-69
2022/07/08 03:16:51;;;;;;;1.95;0.70;;;;;;;;;;4496028;28;20042;-70
2022/07/08 03:19:02;;;;;;;1.25;0.70;;;;;;;;;;4494283;28;20450;-70
2022/07/08 03:21:12;;;;;;;1.42;0.70;;;;;;;;;;4500610;28;20136;-70
2022/07/08 03:23:23;;;;;;;1.77;0.63;;;;;;;;;;4510065;28;20770;-71
2022/07/08 03:25:33;;;;;;;1.85;0.82;;;;;;;;;;4493263;28;20046;-71
2022/07/08 03:27:44;;;;;;;2.08;0.80;;;;;;;;;;4490441;28;20048;-71
2022/07/08 03:29:54;;;;;;;2.17;0.70;;;;;;;;;;4507145;28;20033;-71
2022/07/08 03:32:05;;;;;;;1.25;0.70;;;;;;;;;;4493633;28;20471;-71
2022/07/08 03:34:15;;;;;;;1.63;0.73;;;;;;;;;;4497105;28;20099;-71
2022/07/08 03:36:26;;;;;;;2.08;0.70;;;;;;;;;;4508479;28;20032;-69
2022/07/08 03:38:36;;;;;;;1.08;0.68;;;;;;;;;;4510058;28;20136;-71
2022/07/08 03:43:16;;;;;;;1.95;0.70;;;;;;;;;;4508862;28;20157;-70
2022/07/08 03:45:26;;;;;;;1.30;0.60;;;;;;;;;;4501297;28;20036;-70
2022/07/08 03:47:37;;;;;;;1.25;0.63;;;;;;;;;;4508810;28;20038;-70
2022/07/08 03:49:47;;;;;;;1.08;0.60;;;;;;;;;;4495375;28;20038;-69
2022/07/08 03:51:58;;;;;;;2.47;0.77;;;;;;;;;;4508088;28;22017;-69
2022/07/08 03:54:09;;;;;;;1.73;0.80;;;;;;;;;;4508128;28;22544;-70
2022/07/08 03:56:20;;;;;;;1.50;0.60;;;;;;;;;;4499786;28;20038;-69
2022/07/08 03:58:30;;;;;;;1.80;0.70;;;;;;;;;;4507761;28;20030;-69
2022/07/08 04:00:40;;;;;;;2.08;0.77;;;;;;;;;;4508850;28;20034;-69
2022/07/08 04:02:51;;;;;;;1.23;0.80;;;;;;;;;;4507994;28;20510;-70
2022/07/08 04:05:02;;;;;;;2.35;0.90;;;;;;;;;;4494421;28;20026;-70
2022/07/08 04:07:12;;;;;;;1.92;0.80;;;;;;;;;;4508219;28;20136;-70
2022/07/08 04:09:22;;;;;;;1.63;0.73;;;;;;;;;;4499340;28;20128;-70
2022/07/08 04:11:33;;;;;;;3.22;0.90;;;;;;;;;;4506799;28;20033;-70
2022/07/08 04:13:43;;;;;;;1.42;0.57;;;;;;;;;;4498984;28;20046;-70
2022/07/08 04:15:55;;;;;;;0.95;0.50;;;;;;;;;;4507239;28;20045;-69
2022/07/08 04:18:06;;;;;;;1.08;0.65;;;;;;;;;;4493565;28;20192;-70
2022/07/08 04:20:16;;;;;;;1.75;0.73;;;;;;;;;;4509214;28;20087;-69
2022/07/08 04:22:26;;;;;;;0.95;0.50;;;;;;;;;;4507343;28;20132;-70
2022/07/08 04:24:37;;;;;;;2.75;0.80;;;;;;;;;;4507781;28;20113;-70
2022/07/08 04:26:47;;;;;;;2.00;0.80;;;;;;;;;;4508022;28;20503;-70
2022/07/08 04:28:58;;;;;;;0.93;0.60;;;;;;;;;;4483038;28;20133;-70
2022/07/08 04:31:09;;;;;;;1.73;0.70;;;;;;;;;;4489951;28;20058;-70
2022/07/08 04:33:19;;;;;;;2.88;0.80;;;;;;;;;;4508086;28;20615;-69
2022/07/08 04:35:30;;;;;;;1.70;0.70;;;;;;;;;;4508381;28;20045;-70
2022/07/08 04:37:40;;;;;;;1.92;0.95;;;;;;;;;;4497524;28;20040;-70
2022/07/08 04:39:51;;;;;;;1.50;0.70;;;;;;;;;;4506070;28;20041;-70
2022/07/08 04:42:01;;;;;;;1.02;0.60;;;;;;;;;;4505791;28;20026;-70
2022/07/08 04:44:12;;;;;;;1.88;0.73;;;;;;;;;;4491280;28;20577;-70
2022/07/08 04:46:22;;;;;;;1.98;0.90;;;;;;;;;;4506523;28;20037;-70
2022/07/08 04:48:33;;;;;;;2.38;0.68;;;;;;;;;;4508545;28;20128;-69
2022/07/08 04:50:43;;;;;;;1.67;0.80;;;;;;;;;;4506753;28;20042;-70
2022/07/08 04:52:53;;;;;;;1.40;0.90;;;;;;;;;;4507153;28;20037;-70
2022/07/08 04:55:04;;;;;;;2.00;0.80;;;;;;;;;;4505845;28;20081;-69
2022/07/08 04:57:15;;;;;;;1.55;0.70;;;;;;;;;;4492243;28;20858;-70
2022/07/08 04:59:25;;;;;;;1.15;0.80;;;;;;;;;;4506755;28;20498;-70
2022/07/08 05:01:36;;;;;;;2.05;0.70;;;;;;;;;;4507203;28;20042;-69
2022/07/08 05:03:46;;;;;;;1.50;0.63;;;;;;;;;;4506396;28;20248;-69
2022/07/08 05:05:57;;;;;;;1.73;0.77;;;;;;;;;;4506894;28;20026;-70
2022/07/08 05:08:07;;;;;;;1.58;0.80;;;;;;;;;;4506739;28;20553;-70
2022/07/08 05:10:20;;;;;;;1.80;0.68;;;;;;;;;;4507601;28;20052;-69
2022/07/08 05:12:31;;;;;;;1.65;0.80;;;;;;;;;;4489184;28;20018;-69
2022/07/08 05:14:41;;;;;;;2.13;0.90;;;;;;;;;;4505816;28;20042;-69
2022/07/08 05:16:52;;;;;;;1.77;0.82;;;;;;;;;;4488698;28;20035;-69
2022/07/08 05:19:04;;;;;;;1.90;0.80;;;;;;;;;;4492801;28;20480;-70
2022/07/08 05:21:14;;;;;;;1.85;0.80;;;;;;;;;;4507204;28;20092;-70
2022/07/08 05:23:25;;;;;;;1.55;0.80;;;;;;;;;;4497958;28;20088;-70
2022/07/08 05:25:35;;;;;;;1.83;0.75;;;;;;;;;;4507976;28;20037;-69
2022/07/08 05:27:45;;;;;;;2.30;0.70;;;;;;;;;;4493585;28;20109;-70
2022/07/08 05:29:56;;;;;;;2.05;0.73;;;;;;;;;;4507022;28;20554;-69
2022/07/08 05:32:07;;;;;;;2.67;0.90;;;;;;;;;;4505664;28;20092;-70
2022/07/08 05:34:18;;;;;;;2.33;0.90;;;;;;;;;;4506558;28;20050;-71
2022/07/08 05:36:29;;;;;;;1.77;0.80;;;;;;;;;;4506285;28;20026;-70
2022/07/08 05:38:39;;;;;;;1.45;0.70;;;;;;;;;;4489016;28;20081;-69
2022/07/08 05:40:50;;;;;;;1.60;0.70;;;;;;;;;;4505537;28;20042;-69
2022/07/08 05:43:00;;;;;;;1.38;0.70;;;;;;;;;;4489557;28;20586;-69
2022/07/08 05:45:13;;;;;;;2.42;0.80;;;;;;;;;;4482170;28;20046;-69
2022/07/08 05:47:23;;;;;;;2.55;0.80;;;;;;;;;;4507509;28;20828;-70
2022/07/08 05:49:37;;;;;;;1.20;0.60;;;;;;;;;;4507348;28;20041;-70
2022/07/08 05:51:47;;;;;;;2.40;0.80;;;;;;;;;;4506791;28;20037;-69
2022/07/08 05:53:58;;;;;;;1.77;0.70;;;;;;;;;;4505490;28;20521;-69
2022/07/08 05:56:08;;;;;;;1.67;0.80;;;;;;;;;;4494177;28;20042;-70
2022/07/08 05:58:19;;;;;;;2.05;1.00;;;;;;;;;;4486398;28;20049;-70
2022/07/08 06:00:29;;;;;;;2.00;0.80;;;;;;;;;;4489316;28;20086;-68
2022/07/08 06:02:40;;;;;;;1.40;0.77;;;;;;;;;;4488943;28;20022;-69
2022/07/08 06:04:50;;;;;;;1.55;0.80;;;;;;;;;;4505724;28;20834;-70
2022/07/08 06:07:01;;;;;;;1.98;0.75;;;;;;;;;;4505526;28;20045;-69
2022/07/08 06:09:11;;;;;;;1.70;0.60;;;;;;;;;;4489281;28;20031;-70
2022/07/08 06:11:22;;;;;;;1.70;0.70;;;;;;;;;;4505592;28;20037;-70
2022/07/08 06:13:33;;;;;;;1.52;0.70;;;;;;;;;;4506031;28;20049;-69
2022/07/08 06:15:43;;;;;;;1.58;0.68;;;;;;;;;;4486593;28;20038;-70
2022/07/08 06:17:53;;;;;;;2.40;0.73;;;;;;;;;;4504293;28;20042;-70
2022/07/08 06:20:05;;;;;;;2.63;0.80;;;;;;;;;;4505463;28;20061;-69
2022/07/08 06:22:15;;;;;;;1.13;0.57;;;;;;;;;;4491073;28;20589;-69
2022/07/08 06:24:26;;;;;;;1.23;0.70;;;;;;;;;;4506872;28;20125;-69
2022/07/08 06:26:37;;;;;;;1.40;0.68;;;;;;;;;;4504549;28;20121;-69
2022/07/08 06:28:47;;;;;;;1.17;0.60;;;;;;;;;;4497599;28;21137;-70
2022/07/08 06:30:57;;;;;;;2.03;0.75;;;;;;;;;;4504399;28;20091;-70
2022/07/08 06:33:08;;;;;;;2.67;0.90;;;;;;;;;;4504680;28;20038;-70
2022/07/08 06:35:19;;;;;;;3.10;0.80;;;;;;;;;;4506177;28;20490;-70
2022/07/08 06:37:29;;;;;;;1.65;0.70;;;;;;;;;;4506742;28;20044;-69
2022/07/08 06:39:40;;;;;;;1.92;0.68;;;;;;;;;;4481328;28;20641;-69
2022/07/08 06:41:50;;;;;;;0.73;0.50;;;;;;;;;;4487065;28;20038;-70
2022/07/08 06:44:01;;;;;;;1.65;0.88;;;;;;;;;;4506248;28;20026;-70
2022/07/08 06:46:12;;;;;;;2.33;0.73;;;;;;;;;;4505841;28;20228;-70
2022/07/08 06:48:22;;;;;;;3.00;0.90;;;;;;;;;;4505606;28;20026;-70
2022/07/08 06:50:33;;;;;;;2.03;0.90;;;;;;;;;;4507210;28;20042;-69
2022/07/08 06:52:43;;;;;;;2.55;0.75;;;;;;;;;;4489521;28;20234;-70
2022/07/08 06:54:54;;;;;;;1.60;0.90;;;;;;;;;;4504917;28;20510;-70
2022/07/08 06:57:09;;;;;;;0.98;0.55;;;;;;;;;;4488306;28;20030;-71
2022/07/08 06:59:19;;;;;;;1.67;0.77;;;;;;;;;;4489589;28;20042;-70
2022/07/08 07:01:30;;;;;;;2.55;0.70;;;;;;;;;;4506174;28;20050;-69
2022/07/08 07:03:40;;;;;;;1.92;0.73;;;;;;;;;;4504682;28;20553;-70
2022/07/08 07:05:51;;;;;;;1.77;0.77;;;;;;;;;;4504991;28;20038;-70
2022/07/08 07:08:02;;;;;;;1.48;0.77;;;;;;;;;;4504565;28;20038;-70
2022/07/08 07:10:12;;;;;;;1.85;0.57;;;;;;;;;;4505784;28;20553;-69
2022/07/08 07:12:23;;;;;;;1.55;0.70;;;;;;;;;;4506768;28;20034;-70
2022/07/08 07:14:34;;;;;;;1.48;0.70;;;;;;;;;;4504975;28;20049;-70
2022/07/08 07:16:44;;;;;;;2.17;0.70;;;;;;;;;;4489582;28;20134;-70
2022/07/08 07:18:55;;;;;;;1.52;0.77;;;;;;;;;;4491479;28;20150;-69
2022/07/08 07:21:05;;;;;;;0.85;0.68;;;;;;;;;;4504392;28;20601;-69
2022/07/08 07:23:16;;;;;;;2.25;0.65;;;;;;;;;;4505241;28;20034;-70
2022/07/08 07:25:26;;;;;;;1.42;0.68;;;;;;;;;;4489050;28;20034;-69
2022/07/08 07:27:37;;;;;;;1.80;0.60;;;;;;;;;;4491450;28;20208;-69
2022/07/08 07:29:48;;;;;;;1.77;0.80;;;;;;;;;;4507200;28;20036;-70
2022/07/08 07:31:58;;;;;;;2.60;0.70;;;;;;;;;;4506901;28;20038;-69
2022/07/08 07:34:08;;;;;;;1.80;0.70;;;;;;;;;;4490700;28;20042;-69
2022/07/08 07:36:19;;;;;;;1.65;0.70;;;;;;;;;;4473947;28;20046;-69
2022/07/08 07:38:29;;;;;;;2.33;0.73;;;;;;;;;;4507503;28;20065;-69
2022/07/08 07:40:40;;;;;;;2.63;0.90;;;;;;;;;;4508625;28;20025;-70
2022/07/08 07:42:50;;;;;;;1.52;0.70;;;;;;;;;;4508145;28;20122;-70
2022/07/08 07:45:03;;;;;;;1.35;0.60;;;;;;;;;;4508699;28;20490;-70
2022/07/08 07:47:14;;;;;;;1.50;0.70;;;;;;;;;;4490218;28;20136;-70
2022/07/08 07:49:24;;;;;;;1.48;0.70;;;;;;;;;;4507945;28;20504;-70
2022/07/08 07:51:35;;;;;;;1.52;0.60;;;;;;;;;;4507416;28;20030;-71
2022/07/08 07:53:45;;;;;;;1.67;0.80;;;;;;;;;;4506216;28;20042;-70
2022/07/08 07:55:57;;;;;;;1.48;0.60;;;;;;;;;;4508600;28;20513;-70
2022/07/08 07:58:08;;;;;;;1.55;0.80;;;;;;;;;;4507754;28;20135;-70
2022/07/08 08:00:18;;;;;;;1.42;0.60;;;;;;;;;;4508638;28;20111;-71
2022/07/08 08:02:29;;;;;;;2.70;0.80;;;;;;;;;;4489144;28;20865;-70
2022/07/08 08:04:41;;;;;;;2.05;0.70;;;;;;;;;;4494452;28;20113;-70
2022/07/08 08:06:51;;;;;;;1.70;0.75;;;;;;;;;;4507093;28;20766;-71
2022/07/08 08:09:02;;;;;;;1.58;0.70;;;;;;;;;;4508510;28;20041;-70
2022/07/08 08:11:13;;;;;;;1.38;0.70;;;;;;;;;;4490492;28;20039;-70
2022/07/08 08:13:23;;;;;;;1.90;0.80;;;;;;;;;;4508774;28;20515;-70
2022/07/08 08:15:34;;;;;;;1.00;0.60;;;;;;;;;;4507142;28;20438;-71
2022/07/08 08:17:44;;;;;;;1.90;0.65;;;;;;;;;;4507792;28;20037;-70
2022/07/08 08:19:55;;;;;;;1.35;0.70;;;;;;;;;;4507027;28;20706;-70
2022/07/08 08:22:05;;;;;;;1.23;0.70;;;;;;;;;;4507645;28;20034;-70
2022/07/08 08:24:16;;;;;;;1.42;0.60;;;;;;;;;;4507936;28;20061;-70
2022/07/08 08:26:26;;;;;;;1.80;0.70;;;;;;;;;;4508107;28;20545;-70
2022/07/08 08:28:37;;;;;;;1.15;0.52;;;;;;;;;;4493446;28;20042;-70
2022/07/08 08:30:47;;;;;;;1.48;0.60;;;;;;;;;;4507677;28;20046;-70
2022/07/08 08:32:58;;;;;;;1.55;0.60;;;;;;;;;;4508012;28;20044;-70
2022/07/08 08:35:11;;;;;;;1.08;0.50;;;;;;;;;;4478732;28;20038;-70
2022/07/08 08:37:25;;;;;;;1.23;0.65;;;;;;;;;;4505899;28;20584;-71
2022/07/08 08:39:35;;;;;;;2.95;0.90;;;;;;;;;;4507909;28;20045;-69
2022/07/08 08:41:46;;;;;;;1.65;0.70;;;;;;;;;;4488128;28;20070;-70
2022/07/08 08:43:56;;;;;;;1.67;0.85;;;;;;;;;;4489858;28;20030;-70
2022/07/08 08:46:07;;;;;;;2.60;0.73;;;;;;;;;;4506124;28;20598;-69
2022/07/08 08:48:22;;;;;;;1.20;0.60;;;;;;;;;;4489192;28;20062;-69
2022/07/08 08:53:03;;;;;;;1.17;0.70;;;;;;;;;;4506671;28;20049;-71
2022/07/08 08:55:22;;;;;;;2.55;0.85;;;;;;;;;;4488300;28;20068;-69
2022/07/08 08:57:33;;;;;;;3.20;0.70;;;;;;;;;;4486186;28;20051;-69
2022/07/08 08:59:47;;;;;;;1.60;0.50;;;;;;;;;;4499277;28;20042;-74
2022/07/08 09:01:58;;;;;;;2.28;0.70;;;;;;;;;;4508560;28;20029;-74
2022/07/08 09:04:10;;;;;;;1.27;0.60;;;;;;;;;;4507904;28;20030;-73
2022/07/08 09:06:20;;;;;;;1.52;0.70;;;;;;;;;;4488576;28;20695;-73
2022/07/08 09:08:31;;;;;;;1.58;0.60;;;;;;;;;;4508004;28;20026;-67
2022/07/08 09:10:42;;;;;;;1.85;0.65;;;;;;;;;;4477513;28;20137;-70
2022/07/08 09:12:59;;;;;;;2.17;0.65;;;;;;;;;;4507228;28;20517;-68
2022/07/08 09:15:10;;;;;;;1.98;0.77;;;;;;;;;;4506421;28;21450;-67
2022/07/08 09:17:21;;;;;;;1.73;0.70;;;;;;;;;;4505936;28;20052;-69
2022/07/08 09:19:32;;;;;;;2.45;0.70;;;;;;;;;;4490372;28;20110;-71
2022/07/08 09:21:52;;;;;;;2.00;0.80;;;;;;;;;;4508146;28;20085;-71
2022/07/08 09:24:20;;;;;;;1.13;0.65;;;;;;;;;;4505943;28;20160;-72
2022/07/08 09:26:31;;;;;;;2.03;0.93;;;;;;;;;;4494127;28;20577;-72
2022/07/08 09:28:43;;;;;;;1.48;0.68;;;;;;;;;;4509447;28;20018;-72
2022/07/08 09:30:56;;;;;;;1.52;0.70;;;;;;;;;;4488977;28;20038;-70
2022/07/08 09:33:06;;;;;;;1.33;0.80;;;;;;;;;;4506277;28;20115;-70
2022/07/08 09:35:16;;;;;;;1.95;0.80;;;;;;;;;;4476236;28;20394;-72
2022/07/08 09:37:31;;;;;;;1.65;0.63;;;;;;;;;;4506764;28;22305;-71
2022/07/08 09:39:45;;;;;;;1.60;0.80;;;;;;;;;;4507349;28;20041;-71
2022/07/08 09:41:55;;;;;;;1.35;0.73;;;;;;;;;;4506294;28;20602;-73
2022/07/08 09:44:15;;;;;;;0.88;0.65;;;;;;;;;;4489950;28;20062;-68
2022/07/08 09:46:35;;;;;;;1.58;0.82;;;;;;;;;;4481155;28;20158;-69
2022/07/08 09:48:45;;;;;;;1.45;0.80;;;;;;;;;;4506354;28;20041;-68
2022/07/08 09:50:59;;;;;;;1.90;0.77;;;;;;;;;;4486734;28;20025;-66
2022/07/08 09:53:19;;;;;;;1.75;0.80;;;;;;;;;;4505279;28;20940;-68
2022/07/08 09:55:31;;;;;;;2.85;1.00;;;;;;;;;;4505630;28;20048;-68
2022/07/08 09:57:41;;;;;;;1.27;0.88;;;;;;;;;;4505272;28;20030;-69
2022/07/08 09:59:53;;;;;;;1.73;0.80;;;;;;;;;;4505641;28;20449;-70
2022/07/08 10:02:04;;;;;;;3.60;0.80;;;;;;;;;;4497421;28;20030;-70
2022/07/08 10:04:16;;;;;;;1.67;0.60;;;;;;;;;;4506442;28;20040;-68
2022/07/08 10:06:27;;;;;;;1.08;0.57;;;;;;;;;;4492514;28;20046;-70
2022/07/08 10:08:38;;;;;;;1.55;0.68;;;;;;;;;;4507652;28;20037;-67
2022/07/08 10:10:49;;;;;;;1.20;0.57;;;;;;;;;;4505322;28;20033;-66
2022/07/08 10:13:00;;;;;;;1.13;0.60;;;;;;;;;;4505668;28;20037;-67
2022/07/08 10:15:11;;;;;;;1.13;0.68;;;;;;;;;;4505348;28;20042;-65
2022/07/08 10:17:22;;;;;;;2.03;0.80;;;;;;;;;;4489244;28;20026;-65
2022/07/08 10:19:38;;;;;;;2.05;0.70;;;;;;;;;;4487332;28;20069;-66
2022/07/08 10:21:51;;;;;;;1.58;0.77;;;;;;;;;;4505596;28;20037;-69
2022/07/08 10:24:02;;;;;;;0.60;0.60;;;;;;;;;;4488947;28;20899;-69
2022/07/08 10:26:17;;;;;;;2.00;0.90;;;;;;;;;;4504295;28;20026;-70
2022/07/08 10:28:35;;;;;;;1.20;0.70;;;;;;;;;;4505239;28;20037;-71
2022/07/08 10:30:50;;;;;;;2.72;0.90;;;;;;;;;;4506114;28;20049;-66
2022/07/08 10:33:02;;;;;;;1.60;0.65;;;;;;;;;;4487146;28;20657;-67
2022/07/08 10:35:21;;;;;;;1.45;0.70;;;;;;;;;;4505733;28;20053;-67
2022/07/08 10:37:49;;;;;;;2.45;0.73;;;;;;;;;;4491392;28;20038;-68
2022/07/08 10:39:59;;;;;;;;;;;;;;;;;;4507991;28;20048;-67
2022/07/08 10:42:10;;;;;;;1.65;0.77;;;;;;;;;;4491306;28;20683;-66
2022/07/08 10:44:43;;;;;;;1.50;0.80;;;;;;;;;;4491246;28;20524;-69
2022/07/08 10:46:54;;;;;;;2.63;0.80;;;;;;;;;;4504909;28;20102;-68
2022/07/08 10:49:12;;;;;;;1.73;0.90;;;;;;;;;;4506014;28;20722;-68
2022/07/08 10:51:26;;;;;;;1.38;0.70;;;;;;;;;;4491129;28;20596;-71
2022/07/08 10:53:59;;;;;;;2.30;0.80;;;;;;;;;;4506395;28;20041;-71
2022/07/08 10:56:09;;;;;;;1.42;0.73;;;;;;;;;;4504975;28;20548;-70
2022/07/08 10:58:20;;;;;;;1.60;0.85;;;;;;;;;;4505687;28;20033;-70
2022/07/08 11:00:35;;;;;;;1.50;0.77;;;;;;;;;;4505109;28;20034;-70
2022/07/08 11:02:46;;;;;;;2.15;0.82;;;;;;;;;;4505377;28;20042;-71
2022/07/08 11:04:57;;;;;;;2.13;0.90;;;;;;;;;;4476267;28;20606;-67
2022/07/08 11:07:29;;;;;;;1.70;0.70;;;;;;;;;;4508870;28;20570;-69
2022/07/08 11:09:39;;;;;;;1.10;0.63;;;;;;;;;;4508229;28;20049;-66
2022/07/08 11:11:50;;;;;;;1.70;0.90;;;;;;;;;;4500767;28;20045;-65
2022/07/08 11:14:01;;;;;;;1.65;0.90;;;;;;;;;;4508365;28;20056;-68
2022/07/08 11:16:12;;;;;;;2.47;0.80;;;;;;;;;;4492776;28;20079;-69
2022/07/08 11:18:24;;;;;;;1.40;0.73;;;;;;;;;;4508812;28;20033;-68
2022/07/08 11:20:37;;;;;;;1.67;0.77;;;;;;;;;;4483479;28;20146;-68
2022/07/08 11:22:48;;;;;;;1.50;0.77;;;;;;;;;;4508082;28;20034;-68
2022/07/08 11:24:58;;;;;;;1.23;0.70;;;;;;;;;;4508684;28;20030;-69
2022/07/08 11:27:09;;;;;;;1.17;0.70;;;;;;;;;;4508205;28;20037;-68
2022/07/08 11:29:24;;;;;;;1.55;0.80;;;;;;;;;;4508065;28;20030;-68
2022/07/08 11:31:34;;;;;;;1.17;0.60;;;;;;;;;;4507888;28;20033;-68
2022/07/08 11:33:45;;;;;;;1.90;0.70;;;;;;;;;;4508074;28;20041;-68
2022/07/08 11:35:56;;;;;;;1.95;0.70;;;;;;;;;;4507239;28;20033;-68
2022/07/08 11:38:06;;;;;;;1.55;0.70;;;;;;;;;;4498489;28;20041;-68
2022/07/08 11:40:17;;;;;;;1.38;0.60;;;;;;;;;;4507593;28;20026;-68
2022/07/08 11:42:27;;;;;;;1.27;0.65;;;;;;;;;;4507647;28;20029;-68
2022/07/08 11:44:38;;;;;;;1.80;0.77;;;;;;;;;;4493235;28;20045;-68
2022/07/08 11:46:51;;;;;;;1.08;0.70;;;;;;;;;;4498727;28;20041;-69
2022/07/08 11:49:04;;;;;;;1.52;0.85;;;;;;;;;;4498952;28;20124;-69
2022/07/08 11:51:15;;;;;;;1.35;0.65;;;;;;;;;;4508388;28;20030;-68
2022/07/08 11:53:26;;;;;;;1.45;0.80;;;;;;;;;;4480978;28;20038;-68
2022/07/08 11:55:44;;;;;;;2.05;0.80;;;;;;;;;;4490736;28;20515;-68
2022/07/08 11:58:01;;;;;;;1.30;0.80;;;;;;;;;;4508079;28;20581;-68
2022/07/08 12:00:11;;;;;;;2.05;0.90;;;;;;;;;;4508027;28;20164;-68
2022/07/08 12:02:24;;;;;;;1.10;0.60;;;;;;;;;;4507763;28;20112;-68
2022/07/08 12:04:34;;;;;;;1.65;0.77;;;;;;;;;;4508093;28;20645;-69
2022/07/08 12:06:49;;;;;;;1.55;0.75;;;;;;;;;;4490370;28;22747;-69
2022/07/08 12:09:09;;;;;;;0.95;0.80;;;;;;;;;;4506788;28;20982;-68
2022/07/08 12:11:27;;;;;;;2.45;0.80;;;;;;;;;;4493550;28;21243;-68
2022/07/08 12:13:51;;;;;;;1.55;0.70;;;;;;;;;;4494281;28;20035;-68
2022/07/08 12:16:02;;;;;;;2.15;0.90;;;;;;;;;;4481840;28;20042;-69
2022/07/08 12:18:12;;;;;;;2.10;0.80;;;;;;;;;;4507314;28;20487;-69
2022/07/08 12:20:39;;;;;;;2.38;0.98;;;;;;;;;;4507379;28;20065;-68
2022/07/08 12:22:49;;;;;;;1.15;0.70;;;;;;;;;;4499787;28;20165;-68
2022/07/08 12:25:02;;;;;;;1.42;0.80;;;;;;;;;;4492275;28;20045;-69
2022/07/08 12:27:19;;;;;;;1.88;0.70;;;;;;;;;;4492236;28;20030;-68
2022/07/08 12:29:37;;;;;;;2.45;0.68;;;;;;;;;;4482367;28;20042;-68
2022/07/08 12:31:48;;;;;;;0.88;0.60;;;;;;;;;;4507159;28;20070;-69
2022/07/08 12:34:03;;;;;;;1.75;0.80;;;;;;;;;;4508143;28;20144;-68
2022/07/08 12:36:27;;;;;;;1.65;0.77;;;;;;;;;;4507902;28;20037;-69
2022/07/08 12:38:37;;;;;;;1.60;0.82;;;;;;;;;;4490323;28;20034;-67
2022/07/08 12:40:47;;;;;;;1.13;0.70;;;;;;;;;;4493223;28;20042;-68
2022/07/08 12:43:02;;;;;;;1.45;0.80;;;;;;;;;;4487664;28;20544;-68
2022/07/08 12:45:16;;;;;;;1.73;0.80;;;;;;;;;;4498261;28;20065;-68
2022/07/08 12:47:27;;;;;;;1.85;0.80;;;;;;;;;;4507220;28;20038;-68
2022/07/08 12:49:40;;;;;;;1.90;0.90;;;;;;;;;;4506871;28;20390;-67
2022/07/08 12:51:51;;;;;;;2.05;0.82;;;;;;;;;;4505082;28;20045;-68
2022/07/08 12:54:01;;;;;;;1.92;0.80;;;;;;;;;;4490474;28;20521;-68
2022/07/08 12:56:12;;;;;;;1.63;1.02;;;;;;;;;;4506335;28;20041;-68
2022/07/08 12:58:24;;;;;;;0.82;0.60;;;;;;;;;;4506903;28;20161;-68
2022/07/08 13:00:35;;;;;;;2.92;0.93;;;;;;;;;;4471526;28;20042;-67
2022/07/08 13:02:46;;;;;;;1.05;0.68;;;;;;;;;;4507416;28;20746;-68
2022/07/08 13:04:57;;;;;;;1.42;0.90;;;;;;;;;;4492605;28;20034;-68
2022/07/08 13:07:11;;;;;;;1.55;0.80;;;;;;;;;;4489676;28;20039;-68
2022/07/08 13:09:22;;;;;;;1.40;0.73;;;;;;;;;;4481860;28;20043;-68
2022/07/08 13:11:32;;;;;;;2.28;0.80;;;;;;;;;;4507177;28;20029;-68
2022/07/08 13:13:43;;;;;;;1.65;0.80;;;;;;;;;;4490280;28;20038;-68
2022/07/08 13:15:53;;;;;;;2.15;0.80;;;;;;;;;;4505854;28;20089;-68